sensor_id;sensor_type;location;lat;lon;timestamp;temperature;humidity
15203;DHT22;7702;51.046;5.184;2023-08-30T00:00:10;11.90;99.90
15203;DHT22;7702;51.046;5.184;2023-08-30T00:02:36;11.90;99.90
15203;DHT22;7702;51.046;5.184;2023-08-30T00:05:03;12.00;99.90
15203;DHT22;7702;51.046;5.184;2023-08-30T00:07:29;12.00;99.90
15203;DHT22;7702;51.046;5.184;2023-08-30T00:09:57;12.00;99.90
15203;DHT22;7702;51.046;5.184;2023-08-30T00:12:23;11.90;99.90
15203;DHT22;7702;51.046;5.184;2023-08-30T00:14:50;11.90;99.90
15203;DHT22;7702;51.046;5.184;2023-08-30T00:17:16;11.80;99.90
15203;DHT22;7702;51.046;5.184;2023-08-30T00:19:41;11.80;99.90
15203;DHT22;7702;51.046;5.184;2023-08-30T00:22:07;11.90;99.90
15203;DHT22;7702;51.046;5.184;2023-08-30T00:24:33;12.00;99.90
15203;DHT22;7702;51.046;5.184;2023-08-30T00:27:00;12.10;99.90
15203;DHT22;7702;51.046;5.184;2023-08-30T00:29:27;12.10;99.90
15203;DHT22;7702;51.046;5.184;2023-08-30T00:31:52;12.20;99.90
15203;DHT22;7702;51.046;5.184;2023-08-30T00:34:18;12.20;99.90
15203;DHT22;7702;51.046;5.184;2023-08-30T00:36:44;12.30;99.90
15203;DHT22;7702;51.046;5.184;2023-08-30T00:39:09;12.40;99.90
15203;DHT22;7702;51.046;5.184;2023-08-30T00:41:35;12.40;99.90
15203;DHT22;7702;51.046;5.184;2023-08-30T00:44:01;12.50;99.90
15203;DHT22;7702;51.046;5.184;2023-08-30T00:46:27;12.50;99.90
15203;DHT22;7702;51.046;5.184;2023-08-30T00:48:53;12.60;99.90
15203;DHT22;7702;51.046;5.184;2023-08-30T00:51:19;12.60;99.90
15203;DHT22;7702;51.046;5.184;2023-08-30T00:53:46;12.60;99.90
15203;DHT22;7702;51.046;5.184;2023-08-30T00:56:12;12.60;99.90
15203;DHT22;7702;51.046;5.184;2023-08-30T00:58:38;12.70;99.90
15203;DHT22;7702;51.046;5.184;2023-08-30T01:01:04;12.70;99.90
15203;DHT22;7702;51.046;5.184;2023-08-30T01:03:32;12.70;99.90
15203;DHT22;7702;51.046;5.184;2023-08-30T01:05:58;12.70;99.90
15203;DHT22;7702;51.046;5.184;2023-08-30T01:08:24;12.70;99.90
15203;DHT22;7702;51.046;5.184;2023-08-30T01:10:54;12.70;99.90
15203;DHT22;7702;51.046;5.184;2023-08-30T01:13:21;12.70;99.90
15203;DHT22;7702;51.046;5.184;2023-08-30T01:15:51;12.80;99.90
15203;DHT22;7702;51.046;5.184;2023-08-30T01:18:19;12.80;99.90
15203;DHT22;7702;51.046;5.184;2023-08-30T01:20:47;12.90;99.90
15203;DHT22;7702;51.046;5.184;2023-08-30T01:23:30;12.90;99.90
15203;DHT22;7702;51.046;5.184;2023-08-30T01:28:41;13.00;99.90
15203;DHT22;7702;51.046;5.184;2023-08-30T01:31:08;13.10;99.90
15203;DHT22;7702;51.046;5.184;2023-08-30T01:33:35;13.10;99.90
15203;DHT22;7702;51.046;5.184;2023-08-30T01:36:02;13.10;99.90
15203;DHT22;7702;51.046;5.184;2023-08-30T01:38:29;13.20;99.90
15203;DHT22;7702;51.046;5.184;2023-08-30T01:40:58;13.20;99.90
15203;DHT22;7702;51.046;5.184;2023-08-30T01:43:26;13.20;99.90
15203;DHT22;7702;51.046;5.184;2023-08-30T01:45:54;13.20;99.90
15203;DHT22;7702;51.046;5.184;2023-08-30T01:48:22;13.20;99.90
15203;DHT22;7702;51.046;5.184;2023-08-30T01:50:49;13.30;99.90
15203;DHT22;7702;51.046;5.184;2023-08-30T01:53:15;13.30;99.90
15203;DHT22;7702;51.046;5.184;2023-08-30T01:55:42;13.40;99.90
15203;DHT22;7702;51.046;5.184;2023-08-30T01:58:08;13.30;99.90
15203;DHT22;7702;51.046;5.184;2023-08-30T02:00:35;13.40;99.90
15203;DHT22;7702;51.046;5.184;2023-08-30T02:03:08;13.40;99.90
15203;DHT22;7702;51.046;5.184;2023-08-30T02:05:43;13.40;99.90
15203;DHT22;7702;51.046;5.184;2023-08-30T02:08:15;13.40;99.90
15203;DHT22;7702;51.046;5.184;2023-08-30T02:10:48;13.40;99.90
15203;DHT22;7702;51.046;5.184;2023-08-30T02:13:19;13.40;99.90
15203;DHT22;7702;51.046;5.184;2023-08-30T02:15:47;13.40;99.90
15203;DHT22;7702;51.046;5.184;2023-08-30T02:18:13;13.40;99.90
15203;DHT22;7702;51.046;5.184;2023-08-30T02:20:38;13.40;99.90
15203;DHT22;7702;51.046;5.184;2023-08-30T02:23:04;13.40;99.90
15203;DHT22;7702;51.046;5.184;2023-08-30T02:25:30;13.40;99.90
15203;DHT22;7702;51.046;5.184;2023-08-30T02:27:55;13.40;99.90
15203;DHT22;7702;51.046;5.184;2023-08-30T02:30:21;13.40;99.90
15203;DHT22;7702;51.046;5.184;2023-08-30T02:32:47;13.50;99.90
15203;DHT22;7702;51.046;5.184;2023-08-30T02:35:12;13.50;99.90
15203;DHT22;7702;51.046;5.184;2023-08-30T02:37:38;13.50;99.90
15203;DHT22;7702;51.046;5.184;2023-08-30T02:40:06;13.50;99.90
15203;DHT22;7702;51.046;5.184;2023-08-30T02:42:32;13.50;99.90
15203;DHT22;7702;51.046;5.184;2023-08-30T02:44:59;13.50;99.90
15203;DHT22;7702;51.046;5.184;2023-08-30T02:47:25;13.50;99.90
15203;DHT22;7702;51.046;5.184;2023-08-30T02:49:50;13.50;99.90
15203;DHT22;7702;51.046;5.184;2023-08-30T02:52:17;13.50;99.90
15203;DHT22;7702;51.046;5.184;2023-08-30T02:54:43;13.50;99.90
15203;DHT22;7702;51.046;5.184;2023-08-30T02:57:08;13.40;99.90
15203;DHT22;7702;51.046;5.184;2023-08-30T02:59:34;13.40;99.90
15203;DHT22;7702;51.046;5.184;2023-08-30T03:02:00;13.40;99.90
15203;DHT22;7702;51.046;5.184;2023-08-30T03:04:25;13.50;99.90
15203;DHT22;7702;51.046;5.184;2023-08-30T03:06:52;13.40;99.90
15203;DHT22;7702;51.046;5.184;2023-08-30T03:09:18;13.50;99.90
15203;DHT22;7702;51.046;5.184;2023-08-30T03:11:44;13.50;99.90
15203;DHT22;7702;51.046;5.184;2023-08-30T03:14:09;13.50;99.90
15203;DHT22;7702;51.046;5.184;2023-08-30T03:16:35;13.60;99.90
15203;DHT22;7702;51.046;5.184;2023-08-30T03:19:02;13.60;99.90
15203;DHT22;7702;51.046;5.184;2023-08-30T03:21:28;13.60;99.90
15203;DHT22;7702;51.046;5.184;2023-08-30T03:23:53;13.60;99.90
15203;DHT22;7702;51.046;5.184;2023-08-30T03:26:19;13.60;99.90
15203;DHT22;7702;51.046;5.184;2023-08-30T03:28:45;13.60;99.90
15203;DHT22;7702;51.046;5.184;2023-08-30T03:31:21;13.70;99.90
15203;DHT22;7702;51.046;5.184;2023-08-30T03:33:48;13.60;99.90
15203;DHT22;7702;51.046;5.184;2023-08-30T03:36:16;13.60;99.90
15203;DHT22;7702;51.046;5.184;2023-08-30T03:38:43;13.60;99.90
15203;DHT22;7702;51.046;5.184;2023-08-30T03:41:10;13.60;99.90
15203;DHT22;7702;51.046;5.184;2023-08-30T03:43:36;13.70;99.90
15203;DHT22;7702;51.046;5.184;2023-08-30T03:46:02;13.70;99.90
15203;DHT22;7702;51.046;5.184;2023-08-30T03:48:29;13.70;99.90
15203;DHT22;7702;51.046;5.184;2023-08-30T03:50:55;13.70;99.90
15203;DHT22;7702;51.046;5.184;2023-08-30T03:53:21;13.70;99.90
15203;DHT22;7702;51.046;5.184;2023-08-30T03:55:47;13.70;99.90
15203;DHT22;7702;51.046;5.184;2023-08-30T03:58:13;13.70;99.90
15203;DHT22;7702;51.046;5.184;2023-08-30T04:00:39;13.70;99.90
15203;DHT22;7702;51.046;5.184;2023-08-30T04:03:07;13.70;99.90
15203;DHT22;7702;51.046;5.184;2023-08-30T04:05:35;13.80;99.90
15203;DHT22;7702;51.046;5.184;2023-08-30T04:08:02;13.80;99.90
15203;DHT22;7702;51.046;5.184;2023-08-30T04:10:28;13.80;99.90
15203;DHT22;7702;51.046;5.184;2023-08-30T04:12:54;13.80;99.90
15203;DHT22;7702;51.046;5.184;2023-08-30T04:15:20;13.80;99.90
15203;DHT22;7702;51.046;5.184;2023-08-30T04:17:45;13.80;99.90
15203;DHT22;7702;51.046;5.184;2023-08-30T04:20:11;13.70;99.90
15203;DHT22;7702;51.046;5.184;2023-08-30T04:22:37;13.80;99.90
15203;DHT22;7702;51.046;5.184;2023-08-30T04:25:06;13.80;99.90
15203;DHT22;7702;51.046;5.184;2023-08-30T04:27:34;13.90;99.90
15203;DHT22;7702;51.046;5.184;2023-08-30T04:30:01;13.90;99.90
15203;DHT22;7702;51.046;5.184;2023-08-30T04:32:27;13.90;99.90
15203;DHT22;7702;51.046;5.184;2023-08-30T04:34:53;13.90;99.90
15203;DHT22;7702;51.046;5.184;2023-08-30T04:37:18;13.90;99.90
15203;DHT22;7702;51.046;5.184;2023-08-30T04:39:47;13.90;99.90
15203;DHT22;7702;51.046;5.184;2023-08-30T04:42:14;14.00;99.90
15203;DHT22;7702;51.046;5.184;2023-08-30T04:44:40;14.00;99.90
15203;DHT22;7702;51.046;5.184;2023-08-30T04:47:06;14.00;99.90
15203;DHT22;7702;51.046;5.184;2023-08-30T04:49:31;14.00;99.90
15203;DHT22;7702;51.046;5.184;2023-08-30T04:51:57;14.00;99.90
15203;DHT22;7702;51.046;5.184;2023-08-30T04:54:23;14.00;99.90
15203;DHT22;7702;51.046;5.184;2023-08-30T04:56:48;14.00;99.90
15203;DHT22;7702;51.046;5.184;2023-08-30T04:59:14;14.00;99.90
15203;DHT22;7702;51.046;5.184;2023-08-30T05:01:40;14.00;99.90
15203;DHT22;7702;51.046;5.184;2023-08-30T05:04:10;14.10;99.90
15203;DHT22;7702;51.046;5.184;2023-08-30T05:06:35;14.10;99.90
15203;DHT22;7702;51.046;5.184;2023-08-30T05:09:01;14.10;99.90
15203;DHT22;7702;51.046;5.184;2023-08-30T05:11:28;14.10;99.90
15203;DHT22;7702;51.046;5.184;2023-08-30T05:13:54;14.10;99.90
15203;DHT22;7702;51.046;5.184;2023-08-30T05:16:20;14.10;99.90
15203;DHT22;7702;51.046;5.184;2023-08-30T05:18:46;14.10;99.90
15203;DHT22;7702;51.046;5.184;2023-08-30T05:21:14;14.20;99.90
15203;DHT22;7702;51.046;5.184;2023-08-30T05:23:40;14.20;99.90
15203;DHT22;7702;51.046;5.184;2023-08-30T05:26:09;14.20;99.90
15203;DHT22;7702;51.046;5.184;2023-08-30T05:28:35;14.20;99.90
15203;DHT22;7702;51.046;5.184;2023-08-30T05:31:01;14.30;99.90
15203;DHT22;7702;51.046;5.184;2023-08-30T05:33:26;14.30;99.90
15203;DHT22;7702;51.046;5.184;2023-08-30T05:35:52;14.30;99.90
15203;DHT22;7702;51.046;5.184;2023-08-30T05:38:18;14.30;99.90
15203;DHT22;7702;51.046;5.184;2023-08-30T05:40:44;14.30;99.90
15203;DHT22;7702;51.046;5.184;2023-08-30T05:43:11;14.30;99.90
15203;DHT22;7702;51.046;5.184;2023-08-30T05:45:36;14.30;99.90
15203;DHT22;7702;51.046;5.184;2023-08-30T05:48:03;14.40;99.90
15203;DHT22;7702;51.046;5.184;2023-08-30T05:50:28;14.40;99.90
15203;DHT22;7702;51.046;5.184;2023-08-30T05:52:54;14.40;99.90
15203;DHT22;7702;51.046;5.184;2023-08-30T05:55:20;14.50;99.90
15203;DHT22;7702;51.046;5.184;2023-08-30T05:57:46;14.50;99.90
15203;DHT22;7702;51.046;5.184;2023-08-30T06:00:12;14.50;99.90
15203;DHT22;7702;51.046;5.184;2023-08-30T06:02:39;14.50;99.90
15203;DHT22;7702;51.046;5.184;2023-08-30T06:05:06;14.60;99.90
15203;DHT22;7702;51.046;5.184;2023-08-30T06:07:32;14.60;99.90
15203;DHT22;7702;51.046;5.184;2023-08-30T06:09:58;14.60;99.90
15203;DHT22;7702;51.046;5.184;2023-08-30T06:12:23;14.60;99.90
15203;DHT22;7702;51.046;5.184;2023-08-30T06:14:51;14.60;99.90
15203;DHT22;7702;51.046;5.184;2023-08-30T06:17:19;14.60;99.90
15203;DHT22;7702;51.046;5.184;2023-08-30T06:19:45;14.60;99.90
15203;DHT22;7702;51.046;5.184;2023-08-30T06:22:11;14.60;99.90
15203;DHT22;7702;51.046;5.184;2023-08-30T06:24:37;14.60;99.90
15203;DHT22;7702;51.046;5.184;2023-08-30T06:27:02;14.60;99.90
15203;DHT22;7702;51.046;5.184;2023-08-30T06:29:28;14.70;99.90
15203;DHT22;7702;51.046;5.184;2023-08-30T06:31:54;14.70;99.90
15203;DHT22;7702;51.046;5.184;2023-08-30T06:34:20;14.70;99.90
15203;DHT22;7702;51.046;5.184;2023-08-30T06:36:45;14.60;99.90
15203;DHT22;7702;51.046;5.184;2023-08-30T06:39:11;14.60;99.90
15203;DHT22;7702;51.046;5.184;2023-08-30T06:41:37;14.50;99.90
15203;DHT22;7702;51.046;5.184;2023-08-30T06:44:02;14.50;99.90
15203;DHT22;7702;51.046;5.184;2023-08-30T06:46:30;14.50;99.90
15203;DHT22;7702;51.046;5.184;2023-08-30T06:48:55;14.50;99.90
15203;DHT22;7702;51.046;5.184;2023-08-30T06:51:21;14.50;99.90
15203;DHT22;7702;51.046;5.184;2023-08-30T06:53:46;14.50;99.90
15203;DHT22;7702;51.046;5.184;2023-08-30T06:56:12;14.40;99.90
15203;DHT22;7702;51.046;5.184;2023-08-30T06:58:38;14.40;99.90
15203;DHT22;7702;51.046;5.184;2023-08-30T07:01:04;14.50;99.90
15203;DHT22;7702;51.046;5.184;2023-08-30T07:03:30;14.40;99.90
15203;DHT22;7702;51.046;5.184;2023-08-30T07:05:55;14.40;99.90
15203;DHT22;7702;51.046;5.184;2023-08-30T07:08:21;14.40;99.90
15203;DHT22;7702;51.046;5.184;2023-08-30T07:10:47;14.40;99.90
15203;DHT22;7702;51.046;5.184;2023-08-30T07:13:12;14.50;99.90
15203;DHT22;7702;51.046;5.184;2023-08-30T07:15:39;14.50;99.90
15203;DHT22;7702;51.046;5.184;2023-08-30T07:18:06;14.50;99.90
15203;DHT22;7702;51.046;5.184;2023-08-30T07:20:32;14.50;99.90
15203;DHT22;7702;51.046;5.184;2023-08-30T07:22:58;14.60;99.90
15203;DHT22;7702;51.046;5.184;2023-08-30T07:25:25;14.60;99.90
15203;DHT22;7702;51.046;5.184;2023-08-30T07:27:50;14.60;99.90
15203;DHT22;7702;51.046;5.184;2023-08-30T07:30:16;14.60;99.90
15203;DHT22;7702;51.046;5.184;2023-08-30T07:32:42;14.70;99.90
15203;DHT22;7702;51.046;5.184;2023-08-30T07:35:08;14.70;99.90
15203;DHT22;7702;51.046;5.184;2023-08-30T07:37:35;14.70;99.90
15203;DHT22;7702;51.046;5.184;2023-08-30T07:40:01;14.70;99.90
15203;DHT22;7702;51.046;5.184;2023-08-30T07:42:26;14.70;99.90
15203;DHT22;7702;51.046;5.184;2023-08-30T07:44:52;14.60;99.90
15203;DHT22;7702;51.046;5.184;2023-08-30T07:47:18;14.50;99.90
15203;DHT22;7702;51.046;5.184;2023-08-30T07:49:43;14.50;99.90
15203;DHT22;7702;51.046;5.184;2023-08-30T07:52:09;14.40;99.90
15203;DHT22;7702;51.046;5.184;2023-08-30T07:54:36;14.30;99.90
15203;DHT22;7702;51.046;5.184;2023-08-30T07:57:03;14.30;99.90
15203;DHT22;7702;51.046;5.184;2023-08-30T07:59:29;14.40;99.90
15203;DHT22;7702;51.046;5.184;2023-08-30T08:01:55;14.40;99.90
15203;DHT22;7702;51.046;5.184;2023-08-30T08:04:21;14.40;99.90
15203;DHT22;7702;51.046;5.184;2023-08-30T08:06:47;14.40;99.90
15203;DHT22;7702;51.046;5.184;2023-08-30T08:09:13;14.40;99.90
15203;DHT22;7702;51.046;5.184;2023-08-30T08:11:38;14.40;99.90
15203;DHT22;7702;51.046;5.184;2023-08-30T08:14:12;14.40;99.90
15203;DHT22;7702;51.046;5.184;2023-08-30T08:16:38;14.40;99.90
15203;DHT22;7702;51.046;5.184;2023-08-30T08:19:04;14.30;99.90
15203;DHT22;7702;51.046;5.184;2023-08-30T08:21:29;14.30;99.90
15203;DHT22;7702;51.046;5.184;2023-08-30T08:23:55;14.30;99.90
15203;DHT22;7702;51.046;5.184;2023-08-30T08:26:21;14.30;99.90
15203;DHT22;7702;51.046;5.184;2023-08-30T08:28:46;14.30;99.90
15203;DHT22;7702;51.046;5.184;2023-08-30T08:31:12;14.30;99.90
15203;DHT22;7702;51.046;5.184;2023-08-30T08:33:37;14.40;99.90
15203;DHT22;7702;51.046;5.184;2023-08-30T08:36:04;14.40;99.90
15203;DHT22;7702;51.046;5.184;2023-08-30T08:38:29;14.40;99.90
15203;DHT22;7702;51.046;5.184;2023-08-30T08:41:01;14.50;99.90
15203;DHT22;7702;51.046;5.184;2023-08-30T08:43:29;14.40;99.90
15203;DHT22;7702;51.046;5.184;2023-08-30T08:45:59;14.50;99.90
15203;DHT22;7702;51.046;5.184;2023-08-30T08:48:28;14.50;99.90
15203;DHT22;7702;51.046;5.184;2023-08-30T08:50:55;14.50;99.90
15203;DHT22;7702;51.046;5.184;2023-08-30T08:53:21;14.60;99.90
15203;DHT22;7702;51.046;5.184;2023-08-30T08:55:48;14.70;99.90
15203;DHT22;7702;51.046;5.184;2023-08-30T08:58:15;14.80;99.90
15203;DHT22;7702;51.046;5.184;2023-08-30T09:00:44;14.70;99.90
15203;DHT22;7702;51.046;5.184;2023-08-30T09:03:11;14.80;99.90
15203;DHT22;7702;51.046;5.184;2023-08-30T09:05:40;14.80;99.90
15203;DHT22;7702;51.046;5.184;2023-08-30T09:08:10;14.80;99.90
15203;DHT22;7702;51.046;5.184;2023-08-30T09:10:37;14.90;99.90
15203;DHT22;7702;51.046;5.184;2023-08-30T09:13:03;15.00;99.90
15203;DHT22;7702;51.046;5.184;2023-08-30T09:15:33;15.10;99.90
15203;DHT22;7702;51.046;5.184;2023-08-30T09:17:58;15.20;99.90
15203;DHT22;7702;51.046;5.184;2023-08-30T09:20:25;15.20;99.90
15203;DHT22;7702;51.046;5.184;2023-08-30T09:22:50;15.30;99.90
15203;DHT22;7702;51.046;5.184;2023-08-30T09:25:27;15.30;99.90
15203;DHT22;7702;51.046;5.184;2023-08-30T09:28:00;15.40;99.90
15203;DHT22;7702;51.046;5.184;2023-08-30T09:30:26;15.50;99.90
15203;DHT22;7702;51.046;5.184;2023-08-30T09:32:54;15.70;99.90
15203;DHT22;7702;51.046;5.184;2023-08-30T09:35:25;15.80;99.90
15203;DHT22;7702;51.046;5.184;2023-08-30T09:37:51;15.90;99.90
15203;DHT22;7702;51.046;5.184;2023-08-30T09:40:20;15.80;99.90
15203;DHT22;7702;51.046;5.184;2023-08-30T09:42:47;15.70;99.90
15203;DHT22;7702;51.046;5.184;2023-08-30T09:45:21;15.70;99.90
15203;DHT22;7702;51.046;5.184;2023-08-30T09:47:50;15.80;99.90
15203;DHT22;7702;51.046;5.184;2023-08-30T09:50:19;15.80;99.90
15203;DHT22;7702;51.046;5.184;2023-08-30T09:52:48;15.90;99.90
15203;DHT22;7702;51.046;5.184;2023-08-30T09:55:15;15.90;99.90
15203;DHT22;7702;51.046;5.184;2023-08-30T09:57:44;15.80;99.90
15203;DHT22;7702;51.046;5.184;2023-08-30T10:00:10;15.80;99.90
15203;DHT22;7702;51.046;5.184;2023-08-30T10:02:41;15.80;99.90
15203;DHT22;7702;51.046;5.184;2023-08-30T10:05:10;15.80;99.90
15203;DHT22;7702;51.046;5.184;2023-08-30T10:07:37;15.90;99.90
15203;DHT22;7702;51.046;5.184;2023-08-30T10:10:04;16.00;99.90
15203;DHT22;7702;51.046;5.184;2023-08-30T10:12:31;16.10;99.90
15203;DHT22;7702;51.046;5.184;2023-08-30T10:14:58;16.30;99.90
15203;DHT22;7702;51.046;5.184;2023-08-30T10:17:27;16.50;99.90
15203;DHT22;7702;51.046;5.184;2023-08-30T10:19:55;16.70;99.90
15203;DHT22;7702;51.046;5.184;2023-08-30T10:22:23;17.00;99.90
15203;DHT22;7702;51.046;5.184;2023-08-30T10:24:56;17.00;99.90
15203;DHT22;7702;51.046;5.184;2023-08-30T10:27:24;17.20;99.90
15203;DHT22;7702;51.046;5.184;2023-08-30T10:29:50;17.20;99.90
15203;DHT22;7702;51.046;5.184;2023-08-30T10:32:20;17.20;99.90
15203;DHT22;7702;51.046;5.184;2023-08-30T10:34:50;17.10;99.90
15203;DHT22;7702;51.046;5.184;2023-08-30T10:37:22;17.10;99.90
15203;DHT22;7702;51.046;5.184;2023-08-30T10:39:49;17.10;99.90
15203;DHT22;7702;51.046;5.184;2023-08-30T10:42:16;17.00;99.90
15203;DHT22;7702;51.046;5.184;2023-08-30T10:44:50;16.80;99.90
15203;DHT22;7702;51.046;5.184;2023-08-30T10:47:29;16.60;99.90
15203;DHT22;7702;51.046;5.184;2023-08-30T10:49:59;16.50;99.90
15203;DHT22;7702;51.046;5.184;2023-08-30T10:52:27;16.50;99.90
15203;DHT22;7702;51.046;5.184;2023-08-30T10:54:53;16.50;99.90
15203;DHT22;7702;51.046;5.184;2023-08-30T10:57:29;16.70;99.90
15203;DHT22;7702;51.046;5.184;2023-08-30T11:00:08;16.80;99.90
15203;DHT22;7702;51.046;5.184;2023-08-30T11:02:43;16.90;99.90
15203;DHT22;7702;51.046;5.184;2023-08-30T11:05:11;17.10;99.90
15203;DHT22;7702;51.046;5.184;2023-08-30T11:07:37;17.30;99.90
15203;DHT22;7702;51.046;5.184;2023-08-30T11:10:06;17.50;99.90
15203;DHT22;7702;51.046;5.184;2023-08-30T11:12:32;17.60;99.90
15203;DHT22;7702;51.046;5.184;2023-08-30T11:14:58;17.40;99.90
15203;DHT22;7702;51.046;5.184;2023-08-30T11:17:27;17.30;99.90
15203;DHT22;7702;51.046;5.184;2023-08-30T11:20:08;17.30;99.90
15203;DHT22;7702;51.046;5.184;2023-08-30T11:22:44;17.30;99.90
15203;DHT22;7702;51.046;5.184;2023-08-30T11:25:11;17.30;99.90
15203;DHT22;7702;51.046;5.184;2023-08-30T11:27:38;17.20;99.90
15203;DHT22;7702;51.046;5.184;2023-08-30T11:30:05;17.10;99.90
15203;DHT22;7702;51.046;5.184;2023-08-30T11:32:38;16.90;99.90
15203;DHT22;7702;51.046;5.184;2023-08-30T11:35:05;16.90;99.90
15203;DHT22;7702;51.046;5.184;2023-08-30T11:37:31;17.00;99.90
15203;DHT22;7702;51.046;5.184;2023-08-30T11:39:58;16.90;99.90
15203;DHT22;7702;51.046;5.184;2023-08-30T11:42:25;16.90;99.90
15203;DHT22;7702;51.046;5.184;2023-08-30T11:44:51;16.90;99.90
15203;DHT22;7702;51.046;5.184;2023-08-30T11:47:26;17.00;99.90
15203;DHT22;7702;51.046;5.184;2023-08-30T11:49:59;17.20;99.90
15203;DHT22;7702;51.046;5.184;2023-08-30T11:52:25;17.30;99.90
15203;DHT22;7702;51.046;5.184;2023-08-30T11:54:52;17.30;99.90
15203;DHT22;7702;51.046;5.184;2023-08-30T11:57:19;17.40;99.90
15203;DHT22;7702;51.046;5.184;2023-08-30T11:59:45;17.40;99.90
15203;DHT22;7702;51.046;5.184;2023-08-30T12:02:14;17.50;99.90
15203;DHT22;7702;51.046;5.184;2023-08-30T12:04:42;17.60;99.90
15203;DHT22;7702;51.046;5.184;2023-08-30T12:07:09;17.70;99.90
15203;DHT22;7702;51.046;5.184;2023-08-30T12:09:35;17.50;99.90
15203;DHT22;7702;51.046;5.184;2023-08-30T12:12:14;17.50;99.90
15203;DHT22;7702;51.046;5.184;2023-08-30T12:14:40;17.60;99.90
15203;DHT22;7702;51.046;5.184;2023-08-30T12:17:06;17.70;99.90
15203;DHT22;7702;51.046;5.184;2023-08-30T12:19:34;17.50;99.90
15203;DHT22;7702;51.046;5.184;2023-08-30T12:22:04;17.40;99.90
15203;DHT22;7702;51.046;5.184;2023-08-30T12:24:43;17.40;99.90
15203;DHT22;7702;51.046;5.184;2023-08-30T12:27:09;17.40;99.90
15203;DHT22;7702;51.046;5.184;2023-08-30T12:29:34;17.30;99.90
15203;DHT22;7702;51.046;5.184;2023-08-30T12:32:00;17.20;99.90
15203;DHT22;7702;51.046;5.184;2023-08-30T12:34:26;17.30;99.90
15203;DHT22;7702;51.046;5.184;2023-08-30T12:36:51;17.30;99.90
15203;DHT22;7702;51.046;5.184;2023-08-30T12:39:17;17.30;99.90
15203;DHT22;7702;51.046;5.184;2023-08-30T12:41:43;17.30;99.90
15203;DHT22;7702;51.046;5.184;2023-08-30T12:44:08;17.30;99.90
15203;DHT22;7702;51.046;5.184;2023-08-30T12:46:35;17.40;99.90
15203;DHT22;7702;51.046;5.184;2023-08-30T12:49:00;17.40;99.90
15203;DHT22;7702;51.046;5.184;2023-08-30T12:51:26;17.40;99.90
15203;DHT22;7702;51.046;5.184;2023-08-30T12:53:52;17.40;99.90
15203;DHT22;7702;51.046;5.184;2023-08-30T12:56:17;17.50;99.90
15203;DHT22;7702;51.046;5.184;2023-08-30T12:58:43;17.60;99.90
15203;DHT22;7702;51.046;5.184;2023-08-30T13:01:09;17.70;99.90
15203;DHT22;7702;51.046;5.184;2023-08-30T13:03:34;17.70;99.90
15203;DHT22;7702;51.046;5.184;2023-08-30T13:06:00;18.00;99.90
15203;DHT22;7702;51.046;5.184;2023-08-30T13:08:27;18.40;99.90
15203;DHT22;7702;51.046;5.184;2023-08-30T13:10:52;18.80;99.90
15203;DHT22;7702;51.046;5.184;2023-08-30T13:13:18;19.00;99.90
15203;DHT22;7702;51.046;5.184;2023-08-30T13:15:43;19.40;99.90
15203;DHT22;7702;51.046;5.184;2023-08-30T13:18:09;19.80;99.90
15203;DHT22;7702;51.046;5.184;2023-08-30T13:20:38;20.10;99.90
15203;DHT22;7702;51.046;5.184;2023-08-30T13:23:04;20.60;99.90
15203;DHT22;7702;51.046;5.184;2023-08-30T13:25:31;21.30;99.90
15203;DHT22;7702;51.046;5.184;2023-08-30T13:27:56;21.60;99.90
15203;DHT22;7702;51.046;5.184;2023-08-30T13:30:22;21.60;99.90
15203;DHT22;7702;51.046;5.184;2023-08-30T13:32:48;21.00;99.90
15203;DHT22;7702;51.046;5.184;2023-08-30T13:35:13;20.70;99.90
15203;DHT22;7702;51.046;5.184;2023-08-30T13:37:39;20.90;99.90
15203;DHT22;7702;51.046;5.184;2023-08-30T13:40:05;21.40;99.90
15203;DHT22;7702;51.046;5.184;2023-08-30T13:42:32;21.70;99.90
15203;DHT22;7702;51.046;5.184;2023-08-30T13:44:58;22.10;99.90
15203;DHT22;7702;51.046;5.184;2023-08-30T13:47:24;22.30;99.90
15203;DHT22;7702;51.046;5.184;2023-08-30T13:49:49;22.70;99.90
15203;DHT22;7702;51.046;5.184;2023-08-30T13:52:15;22.80;99.90
15203;DHT22;7702;51.046;5.184;2023-08-30T13:54:41;22.70;99.90
15203;DHT22;7702;51.046;5.184;2023-08-30T13:57:07;22.70;99.90
15203;DHT22;7702;51.046;5.184;2023-08-30T13:59:32;22.70;99.90
15203;DHT22;7702;51.046;5.184;2023-08-30T14:02:01;23.00;99.90
15203;DHT22;7702;51.046;5.184;2023-08-30T14:04:30;23.10;99.90
15203;DHT22;7702;51.046;5.184;2023-08-30T14:06:58;23.50;99.90
15203;DHT22;7702;51.046;5.184;2023-08-30T14:09:23;24.20;99.90
15203;DHT22;7702;51.046;5.184;2023-08-30T14:11:49;23.70;99.90
15203;DHT22;7702;51.046;5.184;2023-08-30T14:14:15;22.80;99.90
15203;DHT22;7702;51.046;5.184;2023-08-30T14:16:41;22.00;99.90
15203;DHT22;7702;51.046;5.184;2023-08-30T14:19:06;21.60;99.90
15203;DHT22;7702;51.046;5.184;2023-08-30T14:21:32;21.30;99.90
15203;DHT22;7702;51.046;5.184;2023-08-30T14:23:58;20.80;99.90
15203;DHT22;7702;51.046;5.184;2023-08-30T14:26:24;20.70;99.90
15203;DHT22;7702;51.046;5.184;2023-08-30T14:28:50;20.90;99.90
15203;DHT22;7702;51.046;5.184;2023-08-30T14:31:15;21.50;99.90
15203;DHT22;7702;51.046;5.184;2023-08-30T14:33:44;22.10;99.90
15203;DHT22;7702;51.046;5.184;2023-08-30T14:36:10;22.40;99.90
15203;DHT22;7702;51.046;5.184;2023-08-30T14:38:36;22.50;99.90
15203;DHT22;7702;51.046;5.184;2023-08-30T14:41:02;23.20;99.90
15203;DHT22;7702;51.046;5.184;2023-08-30T14:43:29;23.40;99.90
15203;DHT22;7702;51.046;5.184;2023-08-30T14:46:05;22.20;99.90
15203;DHT22;7702;51.046;5.184;2023-08-30T14:48:32;20.90;99.90
15203;DHT22;7702;51.046;5.184;2023-08-30T14:50:58;20.20;99.90
15203;DHT22;7702;51.046;5.184;2023-08-30T14:53:24;19.70;99.90
15203;DHT22;7702;51.046;5.184;2023-08-30T14:55:50;19.70;99.90
15203;DHT22;7702;51.046;5.184;2023-08-30T14:58:16;20.10;99.90
15203;DHT22;7702;51.046;5.184;2023-08-30T15:00:41;20.50;99.90
15203;DHT22;7702;51.046;5.184;2023-08-30T15:03:07;21.10;99.90
15203;DHT22;7702;51.046;5.184;2023-08-30T15:05:33;20.80;99.90
15203;DHT22;7702;51.046;5.184;2023-08-30T15:07:59;20.80;99.90
15203;DHT22;7702;51.046;5.184;2023-08-30T15:10:25;20.00;99.90
15203;DHT22;7702;51.046;5.184;2023-08-30T15:12:50;19.50;99.90
15203;DHT22;7702;51.046;5.184;2023-08-30T15:15:16;19.00;99.90
15203;DHT22;7702;51.046;5.184;2023-08-30T15:17:44;18.70;99.90
15203;DHT22;7702;51.046;5.184;2023-08-30T15:20:10;18.70;99.90
15203;DHT22;7702;51.046;5.184;2023-08-30T15:22:35;18.90;99.90
15203;DHT22;7702;51.046;5.184;2023-08-30T15:25:01;19.00;99.90
15203;DHT22;7702;51.046;5.184;2023-08-30T15:27:28;19.30;99.90
15203;DHT22;7702;51.046;5.184;2023-08-30T15:29:54;20.00;99.90
15203;DHT22;7702;51.046;5.184;2023-08-30T15:32:22;20.70;99.90
15203;DHT22;7702;51.046;5.184;2023-08-30T15:34:48;20.30;99.90
15203;DHT22;7702;51.046;5.184;2023-08-30T15:37:14;19.90;99.90
15203;DHT22;7702;51.046;5.184;2023-08-30T15:39:40;20.30;99.90
15203;DHT22;7702;51.046;5.184;2023-08-30T15:42:06;20.90;99.90
15203;DHT22;7702;51.046;5.184;2023-08-30T15:44:31;21.10;99.90